Time;durP1;ratioP1;P1;durP2;ratioP2;P2;SDS_P1;SDS_P2;PMS_P1;PMS_P2;Temp;Humidity;BMP_temperature;BMP_pressure;BME280_temperature;BME280_humidity;BME280_pressure;Samples;Min_cycle;Max_cycle;Signal;HPM_P1;HPM_P2
2022/07/14 10:49:06;;;;;;;3.70;1.30;;;;;;;29.00;34.31;99022.36;1856188;77;22242;-53
2022/07/14 10:51:33;;;;;;;2.92;1.70;;;;;;;29.03;34.50;99032.75;1828383;78;21037;-41
2022/07/14 10:54:12;;;;;;;2.90;1.40;;;;;;;28.79;34.70;99025.30;1809534;78;21023;-45
2022/07/14 10:56:40;;;;;;;2.10;1.70;;;;;;;28.45;35.08;99031.20;1786704;80;21478;-48
2022/07/14 10:59:30;;;;;;;3.58;1.20;;;;;;;28.05;35.71;99026.59;1786895;80;20978;-42
2022/07/14 11:02:13;;;;;;;5.72;1.30;;;;;;;28.20;35.80;99022.34;1815741;78;20968;-45
2022/07/14 11:04:59;;;;;;;1.75;1.40;;;;;;;28.01;35.78;99017.73;1811298;78;21491;-45
2022/07/14 11:07:39;;;;;;;;;;;;;;;27.80;35.93;99024.92;1831506;78;21013;-43
2022/07/14 11:10:20;;;;;;;3.67;1.30;;;;;;;27.49;37.17;99026.78;1828479;78;20101;-48
2022/07/14 11:13:09;;;;;;;1.42;1.12;;;;;;;27.54;36.75;99028.34;1811766;78;20984;-42
2022/07/14 11:15:57;;;;;;;1.22;1.12;;;;;;;27.57;36.80;99035.52;1828246;78;21031;-45
2022/07/14 11:18:41;;;;;;;3.62;1.55;;;;;;;27.48;36.67;99025.94;1826367;78;21568;-44
2022/07/14 11:21:19;;;;;;;6.28;1.52;;;;;;;27.36;36.44;99019.42;1826883;78;21028;-43
2022/07/14 11:23:52;;;;;;;2.40;1.20;;;;;;;27.69;35.75;99033.09;1827225;78;20992;-42
2022/07/14 11:26:37;;;;;;;3.33;1.32;;;;;;;27.85;36.17;99018.41;1828850;78;21018;-46
2022/07/14 11:29:09;;;;;;;4.53;1.60;;;;;;;27.90;35.76;99028.09;1828732;78;21490;-46
2022/07/14 11:31:49;;;;;;;4.50;1.32;;;;;;;28.22;36.26;99029.73;1828550;78;20986;-47
2022/07/14 11:37:13;;;;;;;2.25;1.37;;;;;;;28.88;35.23;99036.22;1828650;78;21146;-48
2022/07/14 11:39:41;;;;;;;3.37;1.32;;;;;;;28.88;35.31;99028.10;1828509;78;20951;-41
2022/07/14 11:42:16;;;;;;;3.15;1.47;;;;;;;28.71;34.58;99022.30;1828163;78;20964;-50
2022/07/14 11:44:49;;;;;;;7.72;1.32;;;;;;;28.67;35.18;99027.30;1828570;78;20977;-40
2022/07/14 11:47:29;;;;;;;5.53;2.15;;;;;;;28.64;35.47;99022.82;1827971;78;20991;-39
2022/07/14 11:50:06;;;;;;;3.98;1.57;;;;;;;28.33;36.03;99021.00;1826158;78;21461;-41
2022/07/14 11:52:36;;;;;;;8.98;1.80;;;;;;;28.04;36.57;99024.09;1826363;78;20995;-40
2022/07/14 11:55:06;;;;;;;2.50;1.40;;;;;;;27.81;36.99;99013.06;1799159;78;20997;-41
2022/07/14 11:57:31;;;;;;;3.25;1.30;;;;;;;28.04;36.87;99018.68;1779304;79;20977;-40
2022/07/14 12:00:09;;;;;;;6.58;1.80;;;;;;;28.31;36.64;99019.55;1779145;80;20970;-45
2022/07/14 12:02:51;;;;;;;1.42;1.30;;;;;;;28.72;36.45;99014.47;1789756;80;20940;-39
2022/07/14 12:05:18;;;;;;;4.15;1.47;;;;;;;28.33;35.95;99011.53;1789918;79;21003;-44
2022/07/14 12:07:53;;;;;;;4.58;1.50;;;;;;;28.14;36.03;99008.28;1770975;80;21018;-40
2022/07/14 12:10:41;;;;;;;5.15;1.42;;;;;;;27.97;35.88;99009.72;1790179;79;21523;-45
2022/07/14 12:13:09;;;;;;;5.67;1.50;;;;;;;27.90;36.16;99001.06;1790010;79;21103;-47
2022/07/14 12:15:36;;;;;;;8.18;1.82;;;;;;;27.48;36.27;99004.85;1790017;80;21451;-41
2022/07/14 12:18:04;;;;;;;2.50;1.50;;;;;;;27.11;36.29;98996.14;1790376;79;20955;-39
2022/07/14 12:20:46;;;;;;;3.27;1.47;;;;;;;26.89;37.03;98998.09;1789939;79;20952;-43
2022/07/14 12:23:13;;;;;;;2.92;1.60;;;;;;;27.21;36.69;98995.23;1790120;79;21050;-40
2022/07/14 12:25:44;;;;;;;2.40;1.30;;;;;;;27.45;35.64;99002.05;1790389;79;20964;-38
2022/07/14 12:28:13;;;;;;;3.00;1.50;;;;;;;27.89;35.52;98995.86;1789789;79;21096;-45
2022/07/14 12:30:59;;;;;;;1.52;1.17;;;;;;;27.81;35.01;98987.40;1790310;79;20990;-47
2022/07/14 12:33:36;;;;;;;2.65;1.25;;;;;;;27.77;35.32;98988.84;1790198;80;20982;-41
2022/07/14 12:36:04;;;;;;;2.47;1.47;;;;;;;28.03;34.97;98998.91;1790422;80;20963;-40
2022/07/14 12:38:34;;;;;;;3.27;1.20;;;;;;;28.07;34.42;99006.94;1790062;79;20995;-45
2022/07/14 12:41:03;;;;;;;5.03;1.90;;;;;;;27.65;33.97;99004.83;1790350;79;21026;-46
2022/07/14 12:43:38;;;;;;;2.27;1.30;;;;;;;27.43;34.78;98995.98;1790098;79;21518;-47
2022/07/14 12:46:08;;;;;;;8.35;1.57;;;;;;;27.12;34.29;98995.94;1790130;79;21421;-46
2022/07/14 12:48:38;;;;;;;2.42;1.50;;;;;;;27.10;35.19;98992.58;1805768;79;21051;-43
2022/07/14 12:51:39;;;;;;;4.67;1.22;;;;;;;27.25;34.59;98983.03;1813741;79;20987;-39
2022/07/14 12:54:17;;;;;;;4.00;1.50;;;;;;;27.23;33.96;98989.13;1816621;79;21018;-43
2022/07/14 12:56:51;;;;;;;6.58;1.40;;;;;;;26.90;33.63;98985.72;1816487;79;20975;-37
2022/07/14 12:59:36;;;;;;;11.75;1.70;;;;;;;26.84;33.63;98994.61;1816953;79;20972;-42
2022/07/14 13:02:06;;;;;;;5.42;1.22;;;;;;;26.71;33.46;98989.14;1816418;79;21508;-38
2022/07/14 13:04:47;;;;;;;8.13;2.10;;;;;;;26.88;33.57;98986.96;1816837;79;21022;-42
2022/07/14 13:07:19;;;;;;;2.70;1.30;;;;;;;26.82;33.93;98968.36;1816608;79;21477;-44
2022/07/14 13:10:19;;;;;;;3.67;1.37;;;;;;;26.98;34.07;98973.95;1816911;79;21087;-44
2022/07/14 13:12:52;;;;;;;3.92;1.85;;;;;;;27.11;33.75;98967.80;1816646;79;20959;-37
2022/07/14 13:15:27;;;;;;;3.80;1.45;;;;;;;27.23;33.53;98967.52;1816690;79;20987;-46
2022/07/14 13:18:03;;;;;;;10.88;1.67;;;;;;;27.06;33.00;98962.98;1816156;79;21126;-42
2022/07/14 13:20:51;;;;;;;3.90;1.62;;;;;;;27.07;33.00;98955.22;1816898;79;21349;-45
2022/07/14 13:23:35;;;;;;;5.90;1.52;;;;;;;27.06;32.48;98987.27;1816627;79;20991;-43
2022/07/14 13:26:12;;;;;;;3.95;1.20;;;;;;;26.87;32.38;98967.25;1816654;79;20971;-41
2022/07/14 13:28:42;;;;;;;1.10;1.00;;;;;;;26.90;32.45;98961.96;1816444;79;20983;-37
2022/07/14 13:31:16;;;;;;;2.15;1.30;;;;;;;26.87;32.28;98963.20;1816885;79;20998;-42
2022/07/14 13:33:46;;;;;;;2.62;1.27;;;;;;;26.94;32.37;98953.28;1816448;79;21014;-41
2022/07/14 13:36:13;;;;;;;3.12;1.22;;;;;;;27.05;32.23;98955.94;1816725;79;20967;-40
2022/07/14 13:38:41;;;;;;;3.20;1.00;;;;;;;27.19;32.30;98957.64;1816709;79;21039;-45
2022/07/14 13:41:09;;;;;;;2.00;0.90;;;;;;;27.29;31.96;98957.84;1816567;79;20990;-37
2022/07/14 13:43:37;;;;;;;3.00;1.12;;;;;;;27.09;31.14;98946.41;1816652;79;20986;-44
2022/07/14 13:46:03;;;;;;;1.32;0.82;;;;;;;27.14;31.71;98947.98;1816386;79;20963;-48
2022/07/14 13:48:29;;;;;;;1.60;0.90;;;;;;;26.78;30.68;98951.73;1816706;79;20999;-45
2022/07/14 13:53:40;;;;;;;3.02;1.10;;;;;;;26.74;30.85;98952.31;1816670;79;20963;-39
2022/07/14 13:56:07;;;;;;;1.75;1.00;;;;;;;26.74;30.91;98950.96;1816784;79;21413;-36
2022/07/14 13:58:33;;;;;;;;;;;;;;;26.68;30.07;98947.72;1819544;79;20975;-50
2022/07/14 14:00:59;;;;;;;3.67;1.07;;;;;;;26.55;29.23;98953.83;1816961;79;20117;-44
2022/07/14 14:03:26;;;;;;;2.53;1.20;;;;;;;26.52;29.38;98952.86;1816812;79;20971;-39
2022/07/14 14:05:56;;;;;;;1.75;1.10;;;;;;;26.50;29.94;98958.97;1816788;79;20995;-46
2022/07/14 14:08:25;;;;;;;5.40;1.27;;;;;;;26.47;29.85;98959.34;1816617;79;20960;-40
2022/07/14 14:10:51;;;;;;;1.47;0.93;;;;;;;26.27;29.98;98942.52;1816474;79;21829;-44
2022/07/14 14:13:22;;;;;;;2.55;1.05;;;;;;;26.28;30.19;98941.48;1816393;79;21450;-44
2022/07/14 14:15:49;;;;;;;3.22;1.00;;;;;;;26.33;30.51;98932.30;1816541;79;20980;-41
2022/07/14 14:18:16;;;;;;;3.77;1.30;;;;;;;26.37;30.01;98932.73;1816363;79;21468;-35
2022/07/14 14:20:42;;;;;;;;;;;;;;;26.29;28.99;98933.73;1819267;79;21460;-41
2022/07/14 14:23:08;;;;;;;1.93;1.17;;;;;;;26.29;29.10;98927.51;1816836;79;20133;-41
2022/07/14 14:25:36;;;;;;;3.55;1.10;;;;;;;26.33;30.42;98930.95;1816688;79;20982;-42
2022/07/14 14:28:05;;;;;;;2.15;1.10;;;;;;;26.37;29.83;98928.17;1816462;79;21024;-47
2022/07/14 14:30:32;;;;;;;2.30;1.02;;;;;;;26.44;30.10;98932.28;1816386;79;21013;-40
2022/07/14 14:32:58;;;;;;;3.12;1.20;;;;;;;26.43;29.35;98926.55;1816812;79;20974;-40
2022/07/14 14:35:25;;;;;;;2.92;0.95;;;;;;;26.45;29.35;98923.17;1816289;79;20971;-43
2022/07/14 14:37:51;;;;;;;5.40;1.20;;;;;;;26.48;29.14;98924.63;1816683;79;21014;-46
2022/07/14 14:40:17;;;;;;;2.37;0.90;;;;;;;26.49;28.82;98919.57;1816295;79;20994;-42
2022/07/14 14:42:43;;;;;;;4.15;1.20;;;;;;;26.46;29.11;98918.60;1816681;79;21007;-45
2022/07/14 14:45:09;;;;;;;3.22;1.00;;;;;;;26.51;28.76;98917.50;1816862;79;21042;-43
2022/07/14 14:47:35;;;;;;;5.50;1.10;;;;;;;26.49;28.40;98914.17;1816639;79;20990;-42
2022/07/14 14:50:03;;;;;;;3.02;1.20;;;;;;;26.51;27.98;98913.45;1816464;78;21046;-44
2022/07/14 14:52:29;;;;;;;1.65;1.12;;;;;;;26.48;28.05;98913.84;1816130;79;21059;-40
2022/07/14 14:54:55;;;;;;;2.75;1.27;;;;;;;26.43;27.48;98909.88;1816367;79;21003;-48
2022/07/14 14:57:21;;;;;;;4.45;1.12;;;;;;;26.31;25.57;98898.49;1816578;79;20978;-38
2022/07/14 14:59:48;;;;;;;2.77;1.17;;;;;;;26.37;27.72;98909.83;1816671;79;20979;-49
2022/07/14 15:02:17;;;;;;;2.25;1.00;;;;;;;26.29;27.75;98909.47;1816722;79;20951;-46
2022/07/14 15:04:43;;;;;;;1.82;1.07;;;;;;;26.30;27.79;98916.50;1816381;79;21112;-37
2022/07/14 15:07:08;;;;;;;3.90;1.00;;;;;;;26.29;27.66;98909.47;1816600;79;21033;-42
2022/07/14 15:09:34;;;;;;;5.03;1.12;;;;;;;26.28;27.97;98907.78;1816558;79;20987;-47
2022/07/14 15:12:00;;;;;;;5.20;1.20;;;;;;;26.20;27.40;98913.33;1816818;79;20995;-46
2022/07/14 15:14:25;;;;;;;5.83;1.15;;;;;;;26.19;27.57;98903.57;1816776;79;21484;-48
2022/07/14 15:16:53;;;;;;;9.25;1.67;;;;;;;26.13;28.35;98898.97;1816677;79;20991;-45
2022/07/14 15:19:19;;;;;;;3.47;0.95;;;;;;;26.12;28.16;98891.91;1816648;79;21638;-46
2022/07/14 15:21:45;;;;;;;3.08;1.35;;;;;;;26.15;27.91;98893.70;1816879;79;21023;-41
2022/07/14 15:24:12;;;;;;;3.22;1.07;;;;;;;26.13;28.27;98902.49;1816453;79;20991;-40
2022/07/14 15:26:39;;;;;;;6.50;1.55;;;;;;;26.01;27.71;98890.08;1816557;79;21518;-38
2022/07/14 15:29:04;;;;;;;3.55;0.90;;;;;;;26.00;27.92;98896.48;1816674;79;21038;-45
2022/07/14 15:31:30;;;;;;;2.52;1.00;;;;;;;25.84;27.37;98886.77;1816734;79;21595;-47
2022/07/14 15:33:56;;;;;;;2.17;1.25;;;;;;;25.89;27.72;98888.90;1816701;79;20956;-48
2022/07/14 15:36:27;;;;;;;3.10;1.40;;;;;;;25.84;28.06;98892.16;1816904;79;21417;-43
2022/07/14 15:41:37;;;;;;;6.17;1.20;;;;;;;25.78;27.74;98887.55;1816799;79;20971;-49
2022/07/14 15:44:03;;;;;;;1.42;1.02;;;;;;;25.76;27.95;98889.61;1816818;79;20995;-38
2022/07/14 15:46:29;;;;;;;9.53;5.37;;;;;;;25.75;27.59;98883.06;1816979;79;21508;-46
2022/07/14 15:48:55;;;;;;;7.33;1.75;;;;;;;25.70;27.35;98889.53;1816805;79;20987;-47
2022/07/14 15:51:21;;;;;;;2.95;1.20;;;;;;;25.77;27.02;98887.74;1816562;79;21011;-42
2022/07/14 15:53:47;;;;;;;2.50;1.22;;;;;;;25.80;26.89;98882.80;1816734;79;20983;-41
2022/07/14 15:56:14;;;;;;;3.58;1.15;;;;;;;25.78;26.82;98875.44;1817524;79;20959;-50
2022/07/14 15:58:41;;;;;;;2.42;1.57;;;;;;;25.80;26.67;98873.90;1817537;79;21034;-45
2022/07/14 16:01:07;;;;;;;3.17;1.37;;;;;;;25.81;27.26;98861.59;1795271;79;20987;-41
2022/07/14 16:03:33;;;;;;;1.20;0.90;;;;;;;25.67;27.66;98870.05;1817842;79;20991;-42
2022/07/14 16:05:59;;;;;;;5.83;1.70;;;;;;;25.70;27.28;98872.03;1817612;79;21555;-47
2022/07/14 16:08:25;;;;;;;2.62;1.12;;;;;;;25.69;27.48;98864.48;1817753;79;21084;-48
2022/07/14 16:10:52;;;;;;;6.42;1.10;;;;;;;25.67;26.24;98861.97;1817516;79;20995;-43
2022/07/14 16:13:18;;;;;;;;;;;;;;;25.61;26.22;98862.75;1820253;79;21022;-44
2022/07/14 16:15:44;;;;;;;2.07;1.00;;;;;;;25.47;26.16;98851.01;1817805;79;20110;-39
2022/07/14 16:18:10;;;;;;;6.47;1.30;;;;;;;25.39;26.88;98857.02;1817805;79;21025;-50
2022/07/14 16:20:37;;;;;;;2.40;1.17;;;;;;;25.39;27.14;98851.12;1817503;79;20967;-43
2022/07/14 16:23:03;;;;;;;3.77;0.93;;;;;;;25.43;27.64;98859.64;1817493;79;20967;-41
2022/07/14 16:25:29;;;;;;;8.43;1.20;;;;;;;25.44;27.50;98855.94;1817867;79;20982;-46
2022/07/14 16:27:55;;;;;;;2.65;1.25;;;;;;;25.42;27.09;98851.27;1816903;79;21155;-45
2022/07/14 16:30:21;;;;;;;2.15;0.93;;;;;;;25.38;26.94;98848.64;1816602;79;20999;-51
2022/07/14 16:32:47;;;;;;;6.35;1.30;;;;;;;25.31;27.08;98847.22;1816594;79;21002;-42
2022/07/14 16:35:13;;;;;;;6.35;1.10;;;;;;;25.22;27.63;98849.67;1816658;79;20975;-37
2022/07/14 16:37:40;;;;;;;3.90;1.17;;;;;;;25.22;27.46;98842.43;1816762;79;21090;-52
2022/07/14 16:40:07;;;;;;;6.40;1.40;;;;;;;25.16;27.33;98837.82;1816827;79;20956;-51
2022/07/14 16:42:37;;;;;;;;;;;;;;;25.19;27.57;98837.94;1819270;79;20975;-36
2022/07/14 16:45:01;;;;;;;4.12;1.10;;;;;;;25.13;27.21;98827.43;1815419;79;20106;-41
2022/07/14 16:47:27;;;;;;;7.33;1.33;;;;;;;25.06;26.99;98819.80;1816823;79;21009;-40
2022/07/14 16:49:53;;;;;;;3.12;1.27;;;;;;;25.01;27.33;98816.83;1817015;79;21479;-38
2022/07/14 16:52:19;;;;;;;3.90;1.10;;;;;;;24.99;27.34;98809.47;1816648;79;20990;-43
2022/07/14 16:54:46;;;;;;;3.87;1.30;;;;;;;24.97;27.43;98806.14;1811755;79;21481;-42
2022/07/14 16:57:12;;;;;;;2.37;1.25;;;;;;;24.92;26.98;98810.73;1812022;79;20994;-47
2022/07/14 16:59:37;;;;;;;4.45;1.07;;;;;;;24.91;27.30;98806.39;1811643;79;20979;-47
2022/07/14 17:02:03;;;;;;;3.02;1.30;;;;;;;24.91;27.34;98797.80;1811712;79;20991;-45
2022/07/14 17:04:29;;;;;;;13.93;10.25;;;;;;;24.90;27.41;98792.12;1811686;79;21031;-47
2022/07/14 17:06:55;;;;;;;15.30;8.65;;;;;;;24.82;27.75;98791.39;1811990;79;21043;-38
2022/07/14 17:09:21;;;;;;;2.92;1.80;;;;;;;24.75;27.05;98797.20;1811778;79;20959;-50
2022/07/14 17:11:46;;;;;;;2.72;1.27;;;;;;;24.66;27.00;98796.46;1811796;79;21038;-56
2022/07/14 17:14:13;;;;;;;4.87;1.52;;;;;;;24.63;26.69;98786.93;1811964;78;20975;-47
2022/07/14 17:16:39;;;;;;;4.85;1.40;;;;;;;24.55;27.16;98778.12;1811905;79;20999;-46
2022/07/14 17:19:06;;;;;;;2.33;1.07;;;;;;;24.48;27.37;98776.66;1812099;79;21461;-43
2022/07/14 17:21:32;;;;;;;6.95;1.90;;;;;;;24.43;27.40;98775.89;1811972;78;21566;-48
2022/07/14 17:23:58;;;;;;;4.70;1.37;;;;;;;24.44;27.66;98763.28;1811925;79;20991;-49
2022/07/14 17:26:24;;;;;;;5.15;1.32;;;;;;;24.44;27.66;98763.28;1811883;79;20987;-45
2022/07/14 17:28:50;;;;;;;1.82;1.05;;;;;;;24.44;28.26;98769.48;1811699;79;20979;-42
2022/07/14 17:31:16;;;;;;;1.42;1.20;;;;;;;24.47;28.13;98766.95;1811725;79;21018;-50
2022/07/14 17:33:43;;;;;;;6.67;1.27;;;;;;;24.45;28.07;98770.30;1811745;78;20979;-47
2022/07/14 17:36:09;;;;;;;6.42;2.47;;;;;;;24.46;28.28;98771.98;1811759;79;21010;-47
2022/07/14 17:38:36;;;;;;;6.72;3.00;;;;;;;24.45;28.37;98764.93;1811997;79;21021;-44
2022/07/14 17:41:02;;;;;;;4.97;1.72;;;;;;;24.39;28.27;98754.42;1811751;79;21449;-46
2022/07/14 17:43:31;;;;;;;9.80;1.77;;;;;;;24.36;28.43;98754.81;1811783;79;21873;-42
2022/07/14 17:45:58;;;;;;;3.30;1.10;;;;;;;24.32;28.87;98757.53;1811686;79;20995;-49
2022/07/14 17:48:24;;;;;;;2.20;1.20;;;;;;;24.24;28.60;98753.09;1811842;79;21473;-45
2022/07/14 17:50:51;;;;;;;5.22;1.37;;;;;;;24.21;28.92;98750.77;1812015;79;21485;-42
2022/07/14 17:53:17;;;;;;;3.90;1.30;;;;;;;24.21;28.96;98753.45;1810466;79;21019;-50
2022/07/14 17:55:43;;;;;;;8.77;1.40;;;;;;;24.11;28.98;98755.09;1806716;79;21000;-42
2022/07/14 17:58:15;;;;;;;4.22;1.70;;;;;;;24.01;29.12;98753.18;1806178;78;20971;-38
2022/07/14 18:00:39;;;;;;;6.00;1.57;;;;;;;24.00;29.75;98754.22;1805592;78;20972;-52
2022/07/14 18:03:05;;;;;;;5.83;3.12;;;;;;;23.95;29.45;98741.84;1806661;79;21015;-50
2022/07/14 18:05:32;;;;;;;4.27;2.10;;;;;;;23.91;29.33;98733.84;1806519;79;20999;-45
2022/07/14 18:07:58;;;;;;;6.73;2.17;;;;;;;23.91;29.50;98728.47;1806603;79;21086;-46
2022/07/14 18:10:25;;;;;;;4.22;2.00;;;;;;;23.88;29.82;98730.17;1806426;79;21097;-44
2022/07/14 18:12:51;;;;;;;3.60;1.75;;;;;;;23.85;30.08;98722.47;1806465;78;21097;-43
2022/07/14 18:15:17;;;;;;;8.95;1.80;;;;;;;23.80;30.54;98727.07;1806483;79;21511;-43
2022/07/14 18:17:43;;;;;;;4.53;1.82;;;;;;;23.75;30.10;98736.97;1806383;78;20987;-47
2022/07/14 18:20:11;;;;;;;5.40;1.63;;;;;;;23.68;30.64;98734.69;1806486;79;20983;-45
2022/07/14 18:22:40;;;;;;;6.03;1.60;;;;;;;23.58;31.25;98731.45;1806279;79;21009;-40
2022/07/14 18:25:11;;;;;;;3.27;1.62;;;;;;;23.59;31.23;98725.05;1806202;79;21003;-39
2022/07/14 18:27:37;;;;;;;6.92;1.50;;;;;;;23.50;30.85;98722.13;1806307;79;21532;-43
2022/07/14 18:30:05;;;;;;;7.22;1.82;;;;;;;23.41;31.48;98713.83;1806659;79;21507;-47
2022/07/14 18:32:31;;;;;;;3.67;1.40;;;;;;;23.36;31.09;98711.70;1805605;78;20977;-53
2022/07/14 18:34:57;;;;;;;4.20;1.92;;;;;;;23.24;30.82;98707.26;1806269;79;20961;-52
2022/07/14 18:37:22;;;;;;;11.35;1.95;;;;;;;23.26;31.14;98709.25;1806208;79;20965;-50
2022/07/14 18:39:48;;;;;;;7.87;2.30;;;;;;;23.25;31.21;98702.23;1806254;79;20969;-50
2022/07/14 18:42:14;;;;;;;23.12;11.18;;;;;;;23.24;31.47;98703.75;1806158;79;20989;-40
2022/07/14 18:47:25;;;;;;;7.35;2.05;;;;;;;23.22;31.73;98719.19;1799724;78;20959;-39
2022/07/14 18:49:50;;;;;;;6.22;1.98;;;;;;;23.17;31.83;98721.06;1798129;78;21508;-42
2022/07/14 18:52:16;;;;;;;4.00;1.55;;;;;;;23.10;31.75;98720.11;1797286;78;20966;-39
2022/07/14 18:54:42;;;;;;;6.15;1.85;;;;;;;23.07;31.95;98712.45;1798767;78;21474;-39
2022/07/14 18:57:08;;;;;;;6.53;1.82;;;;;;;23.04;32.13;98718.13;1795457;79;20987;-40
2022/07/14 18:59:34;;;;;;;6.78;1.90;;;;;;;22.97;32.23;98727.38;1803376;79;21034;-39
2022/07/14 19:02:00;;;;;;;3.60;1.55;;;;;;;22.94;32.22;98729.92;1802588;79;20967;-42
2022/07/14 19:04:25;;;;;;;4.10;1.50;;;;;;;22.94;32.24;98726.38;1802485;79;20994;-42
2022/07/14 19:06:51;;;;;;;6.53;1.47;;;;;;;22.86;32.30;98717.90;1802514;79;21195;-38
2022/07/14 19:09:17;;;;;;;5.35;1.50;;;;;;;22.83;32.33;98722.30;1777823;79;21030;-43
2022/07/14 19:11:43;;;;;;;10.32;1.95;;;;;;;22.83;32.54;98723.64;1790619;79;21002;-41
2022/07/14 19:14:09;;;;;;;9.08;2.30;;;;;;;22.81;33.10;98737.21;1804406;79;20986;-45
2022/07/14 19:16:35;;;;;;;3.58;1.87;;;;;;;22.79;32.89;98743.74;1813839;79;21633;-39
2022/07/14 19:19:00;;;;;;;5.28;1.80;;;;;;;22.75;32.94;98739.23;1816579;79;20991;-36
2022/07/14 19:21:27;;;;;;;10.43;1.70;;;;;;;22.75;33.12;98743.27;1817294;79;20963;-42
2022/07/14 19:23:53;;;;;;;7.00;1.87;;;;;;;22.72;33.26;98742.30;1816759;79;21026;-41
2022/07/14 19:26:21;;;;;;;5.35;2.10;;;;;;;22.69;33.37;98735.94;1816367;79;21590;-42
2022/07/14 19:28:47;;;;;;;5.15;1.87;;;;;;;22.66;33.35;98747.00;1817507;79;21037;-37
2022/07/14 19:31:13;;;;;;;5.83;1.85;;;;;;;22.66;33.42;98754.22;1817697;79;21022;-45
2022/07/14 19:33:40;;;;;;;6.93;2.13;;;;;;;22.65;33.68;98752.05;1817600;79;21025;-38
2022/07/14 19:36:06;;;;;;;7.25;2.00;;;;;;;22.61;33.70;98770.32;1817625;79;21029;-44
2022/07/14 19:38:32;;;;;;;8.10;1.82;;;;;;;22.60;33.77;98765.95;1817227;79;21045;-42
2022/07/14 19:40:58;;;;;;;5.40;1.70;;;;;;;22.58;33.72;98757.78;1817705;79;21034;-42
2022/07/14 19:43:24;;;;;;;4.85;1.55;;;;;;;22.53;33.82;98754.78;1817517;79;21038;-41
2022/07/14 19:45:51;;;;;;;6.37;1.90;;;;;;;22.50;33.91;98747.91;1817302;79;20963;-44
2022/07/14 19:48:17;;;;;;;6.15;2.33;;;;;;;22.47;33.93;98739.41;1817792;79;20971;-43
2022/07/14 19:50:44;;;;;;;5.57;1.93;;;;;;;22.47;34.00;98756.31;1817688;79;21480;-44
2022/07/14 19:53:10;;;;;;;6.03;1.72;;;;;;;22.48;34.49;98756.63;1817673;79;21015;-43
2022/07/14 19:55:36;;;;;;;8.23;1.87;;;;;;;22.39;34.05;98763.89;1808964;78;21050;-41
2022/07/14 19:58:04;;;;;;;5.65;1.92;;;;;;;22.39;34.05;98763.89;1829142;78;20972;-40
2022/07/14 20:00:30;;;;;;;5.85;1.87;;;;;;;22.38;34.23;98777.45;1828973;78;20967;-42
2022/07/14 20:02:56;;;;;;;10.30;2.20;;;;;;;22.31;34.91;98763.91;1829301;77;21002;-40
2022/07/14 20:05:22;;;;;;;13.32;2.50;;;;;;;22.25;34.60;98739.14;1829121;77;20955;-42
2022/07/14 20:07:48;;;;;;;10.03;2.20;;;;;;;22.14;34.71;98717.58;1828929;78;20964;-53
2022/07/14 20:10:15;;;;;;;5.42;2.22;;;;;;;22.10;34.80;98724.27;1829317;78;20962;-46
2022/07/14 20:12:41;;;;;;;8.08;2.37;;;;;;;22.05;35.06;98726.66;1829352;78;20970;-46
2022/07/14 20:15:07;;;;;;;5.92;2.20;;;;;;;21.92;35.46;98716.97;1829127;78;21559;-42
2022/07/14 20:17:34;;;;;;;3.22;2.15;;;;;;;21.90;35.55;98708.28;1829328;77;20959;-45
2022/07/14 20:20:01;;;;;;;6.42;2.00;;;;;;;21.87;35.66;98718.84;1829103;78;20951;-42
2022/07/14 20:22:28;;;;;;;;;;;;;;;21.90;35.60;98739.06;1831827;78;21014;-47
2022/07/14 20:24:54;;;;;;;3.35;1.52;;;;;;;21.87;36.37;98730.88;1829201;78;20420;-44
2022/07/14 20:33:02;;;;;;;5.65;1.90;;;;;;;21.77;36.34;98720.86;1829030;78;20951;-40
2022/07/14 20:35:25;;;;;;;6.67;1.87;;;;;;;21.72;36.42;98713.84;1828495;78;21427;-46
2022/07/14 20:37:51;;;;;;;5.40;1.70;;;;;;;21.61;37.08;98735.09;1828987;78;20976;-46
2022/07/14 20:40:17;;;;;;;2.98;1.50;;;;;;;21.51;37.82;98744.64;1828997;78;21014;-41
2022/07/14 20:42:43;;;;;;;3.63;1.37;;;;;;;21.49;37.19;98752.52;1829265;77;21018;-43
2022/07/14 20:45:11;;;;;;;3.27;1.52;;;;;;;21.42;37.53;98754.47;1829046;78;21516;-44
2022/07/14 20:47:38;;;;;;;11.25;1.85;;;;;;;21.37;37.62;98763.50;1828947;77;20975;-42
2022/07/14 20:50:05;;;;;;;4.10;1.47;;;;;;;21.35;38.12;98776.20;1829105;78;20991;-42
2022/07/14 20:52:31;;;;;;;5.17;1.50;;;;;;;21.35;37.93;98782.89;1829106;78;20955;-44
2022/07/14 20:54:56;;;;;;;3.72;1.67;;;;;;;21.22;38.55;98789.24;1827881;77;21034;-39
2022/07/14 20:57:22;;;;;;;4.10;1.67;;;;;;;21.23;38.79;98782.91;1827767;78;21030;-42
2022/07/14 20:59:48;;;;;;;6.53;1.40;;;;;;;21.06;39.84;98778.02;1828242;78;20975;-40
2022/07/14 21:02:14;;;;;;;6.15;1.75;;;;;;;20.92;39.99;98779.51;1829006;77;21010;-38
2022/07/14 21:04:41;;;;;;;4.40;1.35;;;;;;;20.94;39.44;98773.97;1829097;78;21018;-38
2022/07/14 21:07:08;;;;;;;2.83;1.60;;;;;;;20.98;39.16;98762.80;1817149;78;21003;-41
2022/07/14 21:09:34;;;;;;;7.65;1.87;;;;;;;20.85;39.83;98751.77;1806963;79;20991;-45
2022/07/14 21:12:01;;;;;;;6.55;1.72;;;;;;;20.79;39.52;98731.02;1806995;79;21003;-40
2022/07/14 21:14:27;;;;;;;5.72;1.87;;;;;;;20.70;39.95;98715.47;1807518;78;21039;-44
2022/07/14 21:16:53;;;;;;;15.40;2.15;;;;;;;20.73;39.65;98703.64;1807143;79;21015;-39
2022/07/14 21:19:19;;;;;;;5.10;1.67;;;;;;;20.56;40.96;98709.42;1807482;79;21520;-47
2022/07/14 21:21:45;;;;;;;8.63;2.70;;;;;;;20.53;40.62;98715.91;1807198;79;20960;-48
2022/07/14 21:24:11;;;;;;;6.25;1.50;;;;;;;20.49;40.66;98719.91;1807223;79;20949;-40
2022/07/14 21:26:38;;;;;;;4.42;1.80;;;;;;;20.45;40.78;98738.09;1807102;78;21673;-43
2022/07/14 21:29:04;;;;;;;5.42;1.60;;;;;;;20.45;41.07;98755.45;1807412;79;21426;-41
2022/07/14 21:31:31;;;;;;;3.33;1.52;;;;;;;20.42;41.31;98756.27;1807285;79;21010;-45
2022/07/14 21:33:57;;;;;;;4.78;1.62;;;;;;;20.36;42.35;98764.94;1807274;79;21042;-42
2022/07/14 21:36:24;;;;;;;2.85;1.50;;;;;;;20.27;42.79;98756.88;1806151;79;21078;-43
2022/07/14 21:38:50;;;;;;;5.53;1.45;;;;;;;20.25;41.95;98778.89;1806316;79;21018;-40
2022/07/14 21:41:16;;;;;;;8.23;1.60;;;;;;;20.30;42.07;98786.41;1806398;79;21011;-42
2022/07/14 21:43:42;;;;;;;4.85;1.67;;;;;;;20.11;42.64;98792.33;1807164;79;21519;-42
2022/07/14 21:46:08;;;;;;;9.13;1.65;;;;;;;20.07;42.75;98778.13;1807198;79;21018;-43
2022/07/14 21:48:34;;;;;;;4.25;1.42;;;;;;;20.03;42.80;98756.73;1807152;79;21014;-39
2022/07/14 21:51:00;;;;;;;6.47;1.77;;;;;;;19.97;43.29;98742.70;1807302;79;20967;-41
2022/07/14 21:53:26;;;;;;;5.12;1.60;;;;;;;20.00;43.03;98747.73;1807293;79;20979;-44
2022/07/14 21:55:53;;;;;;;7.95;1.50;;;;;;;19.87;43.27;98761.50;1811119;78;21023;-40
2022/07/14 21:58:19;;;;;;;5.67;1.33;;;;;;;19.67;44.54;98784.84;1783828;79;21014;-39
2022/07/14 22:00:46;;;;;;;4.70;1.72;;;;;;;19.63;44.19;98777.66;1812828;79;21215;-43
2022/07/14 22:03:12;;;;;;;4.72;1.75;;;;;;;19.59;44.82;98778.10;1812839;79;21013;-41
2022/07/14 22:05:38;;;;;;;6.22;1.50;;;;;;;19.59;44.19;98774.10;1812538;79;20987;-40
2022/07/14 22:08:05;;;;;;;5.70;1.30;;;;;;;19.45;44.53;98778.18;1812611;79;20976;-42
2022/07/14 22:10:33;;;;;;;4.22;1.47;;;;;;;19.41;44.77;98798.12;1812620;79;21119;-42
2022/07/14 22:13:01;;;;;;;6.90;1.45;;;;;;;19.41;44.50;98813.64;1812546;79;21030;-42
2022/07/14 22:15:27;;;;;;;10.40;1.57;;;;;;;19.32;45.21;98778.06;1812622;79;21034;-39
2022/07/14 22:17:53;;;;;;;4.90;1.45;;;;;;;19.25;45.31;98757.02;1812561;78;20994;-43
2022/07/14 22:20:19;;;;;;;3.57;1.30;;;;;;;19.29;44.87;98794.86;1812780;78;21030;-43
2022/07/14 22:22:51;;;;;;;2.58;1.20;;;;;;;19.19;45.49;98808.25;1812502;79;20987;-44
2022/07/14 22:25:14;;;;;;;2.77;1.30;;;;;;;19.27;44.50;98799.52;1811066;79;20987;-44
2022/07/14 22:27:39;;;;;;;7.08;1.35;;;;;;;19.30;44.59;98804.52;1812510;79;20995;-41
2022/07/14 22:30:09;;;;;;;4.80;1.35;;;;;;;19.33;44.51;98810.38;1812616;79;21063;-42
2022/07/14 22:32:35;;;;;;;5.72;1.32;;;;;;;19.29;44.68;98807.69;1812504;78;20990;-41
2022/07/14 22:35:01;;;;;;;3.33;1.43;;;;;;;19.24;44.96;98809.14;1812850;78;21515;-42
2022/07/14 22:37:27;;;;;;;4.42;1.40;;;;;;;19.25;45.88;98818.83;1812464;79;21484;-46
2022/07/14 22:39:53;;;;;;;7.25;1.85;;;;;;;19.07;46.00;98819.64;1812599;79;20987;-41
2022/07/14 22:42:20;;;;;;;11.00;1.72;;;;;;;19.13;45.76;98819.53;1812565;79;21025;-44
2022/07/14 22:44:47;;;;;;;6.05;1.50;;;;;;;19.07;45.72;98816.97;1812652;79;21018;-43